Time;durP1;ratioP1;P1;durP2;ratioP2;P2;SDS_P1;SDS_P2;PMS_P1;PMS_P2;Temp;Humidity;BMP_temperature;BMP_pressure;BME280_temperature;BME280_humidity;BME280_pressure;Samples;Min_cycle;Max_cycle;Signal;HPM_P1;HPM_P2
2023/04/05 00:00:10;;;;;;;;;;;;;;;26.21;42.15;96457.36;624305;227;62948;-64
2023/04/05 00:02:39;;;;;;;;;;;;;;;26.19;39.89;96463.08;624284;227;67950;-63
2023/04/05 00:05:07;;;;;;;;;;;;;;;26.19;39.04;96465.77;624344;227;64596;-63
2023/04/05 00:07:35;;;;;;;;;;;;;;;26.19;40.12;96465.77;624253;227;65047;-63
2023/04/05 00:10:02;;;;;;;;;;;;;;;26.18;40.51;96463.38;624290;227;64763;-63
2023/04/05 00:12:30;;;;;;;;;;;;;;;26.17;40.19;96456.42;624270;227;65298;-63
2023/04/05 00:14:57;;;;;;;;;;;;;;;26.16;41.28;96455.61;624308;227;64993;-64
2023/04/05 00:17:25;;;;;;;;;;;;;;;26.16;39.01;96463.69;624290;227;67254;-63
2023/04/05 00:19:56;;;;;;;;;;;;;;;26.15;40.81;96462.12;624299;227;67006;-63
2023/04/05 00:22:24;;;;;;;;;;;;;;;26.14;42.34;96452.47;624164;227;65073;-63
2023/04/05 00:24:50;;;;;;;;;;;;;;;26.13;40.85;96448.17;624176;227;67210;-61
2023/04/05 00:27:18;;;;;;;;;;;;;;;26.12;41.54;96450.08;624286;227;67077;-61
2023/04/05 00:29:45;;;;;;;;;;;;;;;26.11;40.09;96451.20;624285;227;64687;-61
2023/04/05 00:32:13;;;;;;;;;;;;;;;26.12;40.75;96451.98;624299;227;66746;-63
2023/04/05 00:34:40;;;;;;;;;;;;;;;26.11;41.67;96450.41;624271;227;64817;-64
2023/04/05 00:37:08;;;;;;;;;;;;;;;26.09;40.16;96453.41;624291;227;63039;-63
2023/04/05 00:39:35;;;;;;;;;;;;;;;26.08;39.81;96446.45;624102;227;67462;-63
2023/04/05 00:42:06;;;;;;;;;;;;;;;26.08;40.25;96448.33;621876;228;64776;-63
2023/04/05 00:44:33;;;;;;;;;;;;;;;26.09;42.92;96455.31;621870;228;65073;-63
2023/04/05 00:47:07;;;;;;;;;;;;;;;26.07;40.42;96452.92;621849;228;65718;-63
2023/04/05 00:49:38;;;;;;;;;;;;;;;26.06;41.88;96454.05;621871;228;67078;-63
2023/04/05 00:52:05;;;;;;;;;;;;;;;26.06;39.43;96455.95;621858;228;63948;-59
2023/04/05 00:54:33;;;;;;;;;;;;;;;26.06;39.98;96455.95;621868;228;67040;-59
2023/04/05 00:57:01;;;;;;;;;;;;;;;26.05;43.47;96451.66;621846;228;64611;-59
2023/04/05 00:59:29;;;;;;;;;;;;;;;26.04;42.49;96450.09;621839;228;62990;-59
2023/04/05 01:02:08;;;;;;;;;;;;;;;26.03;40.12;96446.61;621816;228;67810;-61
2023/04/05 01:04:36;;;;;;;;;;;;;;;26.01;41.35;96440.74;621784;226;65541;-61
2023/04/05 01:07:08;;;;;;;;;;;;;;;26.02;41.77;96447.70;621855;228;65080;-61
2023/04/05 01:09:43;;;;;;;;;;;;;;;26.01;41.20;96442.65;621846;228;67231;-61
2023/04/05 01:12:13;;;;;;;;;;;;;;;26.00;42.26;96439.17;621813;228;72499;-61
2023/04/05 01:14:45;;;;;;;;;;;;;;;26.00;43.04;96435.66;621822;228;65825;-61
2023/04/05 01:17:15;;;;;;;;;;;;;;;26.00;44.04;96441.05;621539;227;65035;-62
2023/04/05 01:19:46;;;;;;;;;;;;;;;25.99;41.21;96442.16;621863;228;64243;-61
2023/04/05 01:22:17;;;;;;;;;;;;;;;25.98;42.85;96445.98;621804;228;62897;-61
2023/04/05 01:25:01;;;;;;;;;;;;;;;25.96;42.06;96440.89;621837;228;64984;-62
2023/04/05 01:27:28;;;;;;;;;;;;;;;25.95;41.48;96439.32;621799;228;67184;-61
2023/04/05 01:30:02;;;;;;;;;;;;;;;25.95;41.48;96438.53;621333;228;65203;-61
2023/04/05 01:32:46;;;;;;;;;;;;;;;25.94;40.78;96436.94;621875;228;66979;-62
2023/04/05 01:35:16;;;;;;;;;;;;;;;25.94;43.46;96445.80;621687;228;64781;-61
2023/04/05 01:37:45;;;;;;;;;;;;;;;25.93;44.18;96438.84;621844;228;64921;-61
2023/04/05 01:40:12;;;;;;;;;;;;;;;25.91;40.84;96444.53;622576;227;67082;-61
2023/04/05 01:42:40;;;;;;;;;;;;;;;25.91;42.41;96441.84;624314;227;66827;-61
2023/04/05 01:45:08;;;;;;;;;;;;;;;25.90;41.73;96448.34;624294;227;65811;-61
2023/04/05 01:47:36;;;;;;;;;;;;;;;25.90;43.26;96448.34;624260;227;64862;-61
2023/04/05 01:50:04;;;;;;;;;;;;;;;25.89;42.34;96445.95;624294;227;64917;-61
2023/04/05 01:52:32;;;;;;;;;;;;;;;25.89;43.21;96444.08;624264;227;65798;-61
2023/04/05 01:54:59;;;;;;;;;;;;;;;25.88;44.15;96450.55;624293;227;67438;-61
2023/04/05 01:57:27;;;;;;;;;;;;;;;25.88;43.35;96449.77;624289;227;67131;-59
2023/04/05 01:59:55;;;;;;;;;;;;;;;25.88;43.58;96447.07;624252;227;64377;-59
2023/04/05 02:02:22;;;;;;;;;;;;;;;25.86;42.13;96439.33;624296;227;67083;-62
2023/04/05 02:04:50;;;;;;;;;;;;;;;25.85;42.79;96445.80;624271;227;64612;-62
2023/04/05 02:07:17;;;;;;;;;;;;;;;25.84;41.84;96444.23;624301;227;62837;-62
2023/04/05 02:09:45;;;;;;;;;;;;;;;25.84;42.96;96444.23;624296;227;65091;-62
2023/04/05 02:12:13;;;;;;;;;;;;;;;25.83;43.23;96436.42;624275;227;65684;-62
2023/04/05 02:14:40;;;;;;;;;;;;;;;25.83;42.71;96442.63;624243;227;62840;-63
2023/04/05 02:17:07;;;;;;;;;;;;;;;25.82;43.16;96443.72;624276;227;64777;-62
2023/04/05 02:19:40;;;;;;;;;;;;;;;25.82;42.76;96446.41;624290;227;67005;-62
2023/04/05 02:22:07;;;;;;;;;;;;;;;25.82;43.91;96454.48;624171;227;65750;-62
2023/04/05 02:24:34;;;;;;;;;;;;;;;25.81;43.90;96452.91;624268;227;67439;-62
2023/04/05 02:27:02;;;;;;;;;;;;;;;25.81;43.64;96449.41;624280;227;67051;-62
2023/04/05 02:29:32;;;;;;;;;;;;;;;25.80;43.82;96450.52;624276;227;64932;-62
2023/04/05 02:31:59;;;;;;;;;;;;;;;25.79;43.14;96451.64;624284;227;67146;-62
2023/04/05 02:34:26;;;;;;;;;;;;;;;25.78;40.76;96450.03;624313;227;66819;-62
2023/04/05 02:36:54;;;;;;;;;;;;;;;25.77;42.06;96454.63;624265;227;64866;-62
2023/04/05 02:39:21;;;;;;;;;;;;;;;25.77;42.96;96451.16;624295;227;67184;-62
2023/04/05 02:41:49;;;;;;;;;;;;;;;25.76;41.52;96453.06;624202;227;67143;-62
2023/04/05 02:44:17;;;;;;;;;;;;;;;25.76;43.78;96450.37;624296;227;63642;-62
2023/04/05 02:46:44;;;;;;;;;;;;;;;25.74;42.86;96444.50;624287;227;67209;-62
2023/04/05 02:49:12;;;;;;;;;;;;;;;25.73;42.58;96448.31;624246;227;67464;-62
2023/04/05 02:51:40;;;;;;;;;;;;;;;25.73;42.49;96442.11;624289;227;65283;-62
2023/04/05 02:54:08;;;;;;;;;;;;;;;25.72;42.84;96446.70;624235;227;67245;-62
2023/04/05 02:56:37;;;;;;;;;;;;;;;25.72;42.41;96441.33;624294;227;66894;-62
2023/04/05 02:59:06;;;;;;;;;;;;;;;25.71;41.94;96441.66;624118;227;41989;-64
2023/04/05 03:01:35;;;;;;;;;;;;;;;25.70;42.24;96438.18;624265;227;67350;-64
2023/04/05 03:04:03;;;;;;;;;;;;;;;25.70;42.79;96440.87;624291;227;67449;-63
2023/04/05 03:06:30;;;;;;;;;;;;;;;25.69;43.96;96437.36;624242;227;65831;-63
2023/04/05 03:09:00;;;;;;;;;;;;;;;25.69;43.73;96448.13;624276;227;66129;-63
2023/04/05 03:11:28;;;;;;;;;;;;;;;25.68;41.46;96445.77;624323;227;67216;-63
2023/04/05 03:13:57;;;;;;;;;;;;;;;25.67;42.83;96439.60;624336;227;42364;-63
2023/04/05 03:16:38;;;;;;;;;;;;;;;25.66;41.83;96453.36;624067;227;48148;-63
2023/04/05 03:19:06;;;;;;;;;;;;;;;25.67;44.43;96449.55;624214;227;44233;-63
2023/04/05 03:21:35;;;;;;;;;;;;;;;25.65;41.59;96443.71;624271;227;65306;-63
2023/04/05 03:24:05;;;;;;;;;;;;;;;25.64;43.62;96444.80;624266;227;44043;-62
2023/04/05 03:26:35;;;;;;;;;;;;;;;25.64;43.50;96439.42;624245;227;46769;-62
2023/04/05 03:29:03;;;;;;;;;;;;;;;25.63;42.97;96445.92;624263;227;64857;-62
2023/04/05 03:31:32;;;;;;;;;;;;;;;25.63;42.99;96445.92;624243;227;67442;-64
2023/04/05 03:34:01;;;;;;;;;;;;;;;25.61;42.88;96443.53;624289;227;45455;-63
2023/04/05 03:36:40;;;;;;;;;;;;;;;25.61;44.52;96448.91;624245;227;44526;-64
2023/04/05 03:39:00;;;;;;;;;;;;;;;25.59;40.76;96437.69;624027;227;67749;-63
2023/04/05 03:41:28;;;;;;;;;;;;;;;25.60;42.86;96446.55;624242;227;66839;-63
2023/04/05 03:43:56;;;;;;;;;;;;;;;25.59;43.39;96445.77;624255;227;65862;-61
2023/04/05 03:46:24;;;;;;;;;;;;;;;25.58;42.29;96441.47;624226;227;64266;-61
2023/04/05 03:48:51;;;;;;;;;;;;;;;25.57;40.79;96445.28;624265;227;67530;-61
2023/04/05 03:51:19;;;;;;;;;;;;;;;25.58;42.26;96446.06;624308;227;62500;-61
2023/04/05 03:53:49;;;;;;;;;;;;;;;25.57;42.94;96449.87;624260;227;46295;-61
2023/04/05 03:56:18;;;;;;;;;;;;;;;25.56;41.79;96450.96;624237;227;65319;-61
2023/04/05 03:58:47;;;;;;;;;;;;;;;25.57;43.80;96449.87;624244;227;43156;-61
2023/04/05 04:01:15;;;;;;;;;;;;;;;25.55;43.11;96450.17;624238;227;67539;-61
2023/04/05 04:03:43;;;;;;;;;;;;;;;25.53;42.35;96446.21;624181;227;67001;-61
2023/04/05 04:06:10;;;;;;;;;;;;;;;25.53;42.29;96454.28;624280;227;63080;-61
2023/04/05 04:08:38;;;;;;;;;;;;;;;25.54;43.46;96455.88;624211;227;67855;-61
2023/04/05 04:11:07;;;;;;;;;;;;;;;25.53;42.85;96459.66;624109;227;64920;-61
2023/04/05 04:13:36;;;;;;;;;;;;;;;25.52;42.67;96463.47;624138;227;45188;-61
2023/04/05 04:16:05;;;;;;;;;;;;;;;25.51;42.08;96456.48;623147;227;48707;-61
2023/04/05 04:18:35;;;;;;;;;;;;;;;25.51;40.59;96467.25;623495;227;46959;-61
2023/04/05 04:21:09;;;;;;;;;;;;;;;25.50;42.69;96463.77;620790;227;46640;-60
2023/04/05 04:23:39;;;;;;;;;;;;;;;25.50;42.89;96457.60;622971;227;48483;-61
2023/04/05 04:26:27;;;;;;;;;;;;;;;25.49;43.94;96464.89;624334;227;40547;-61
2023/04/05 04:29:11;;;;;;;;;;;;;;;25.49;42.82;96462.20;615306;227;47345;-61
2023/04/05 04:31:47;;;;;;;;;;;;;;;25.49;42.01;96458.72;623761;227;45435;-61
2023/04/05 04:34:33;;;;;;;;;;;;;;;25.49;42.01;96464.89;624348;227;38853;-60
2023/04/05 04:37:03;;;;;;;;;;;;;;;25.50;44.20;96465.67;620317;227;47555;-60
2023/04/05 04:39:38;;;;;;;;;;;;;;;25.51;43.71;96464.55;623511;227;45629;-61
2023/04/05 04:42:10;;;;;;;;;;;;;;;25.50;43.35;96465.67;621347;228;44919;-61
2023/04/05 04:44:48;;;;;;;;;;;;;;;25.51;43.33;96473.45;621557;228;43416;-61
2023/04/05 04:47:21;;;;;;;;;;;;;;;25.51;43.01;96470.75;621646;228;47605;-61
2023/04/05 04:49:53;;;;;;;;;;;;;;;25.52;41.84;96468.84;620822;228;48401;-62
2023/04/05 04:52:21;;;;;;;;;;;;;;;25.52;40.36;96464.26;621884;228;65089;-61
2023/04/05 04:54:49;;;;;;;;;;;;;;;25.56;43.53;96475.17;621793;228;67186;-61
2023/04/05 04:57:17;;;;;;;;;;;;;;;25.56;44.09;96475.17;621758;228;67034;-61
2023/04/05 04:59:44;;;;;;;;;;;;;;;25.57;41.97;96471.40;621825;228;65162;-62
2023/04/05 05:02:12;;;;;;;;;;;;;;;25.58;43.31;96473.76;621805;228;67189;-61
2023/04/05 05:04:41;;;;;;;;;;;;;;;25.59;42.52;96469.16;621758;228;66851;-61
2023/04/05 05:07:09;;;;;;;;;;;;;;;25.60;42.85;96471.55;621857;228;62766;-61
2023/04/05 05:09:37;;;;;;;;;;;;;;;25.61;42.83;96465.05;621697;228;65842;-61
2023/04/05 05:12:05;;;;;;;;;;;;;;;25.63;40.65;96467.44;621762;228;67357;-60
2023/04/05 05:14:32;;;;;;;;;;;;;;;25.66;41.52;96472.19;621772;228;65106;-61
2023/04/05 05:17:00;;;;;;;;;;;;;;;25.67;40.23;96465.69;621601;228;67040;-62
2023/04/05 05:19:30;;;;;;;;;;;;;;;25.69;39.87;96468.88;621764;228;65821;-62
2023/04/05 05:21:58;;;;;;;;;;;;;;;25.72;39.11;96475.52;621783;228;62463;-61
2023/04/05 05:24:26;;;;;;;;;;;;;;;25.73;41.32;96474.41;621753;228;64978;-61
2023/04/05 05:26:55;;;;;;;;;;;;;;;25.76;44.04;96473.80;621731;228;66999;-62
2023/04/05 05:29:23;;;;;;;;;;;;;;;25.77;41.18;96475.38;621788;228;63037;-61
2023/04/05 05:31:50;;;;;;;;;;;;;;;25.79;40.34;96484.72;621786;228;64748;-61
2023/04/05 05:34:18;;;;;;;;;;;;;;;25.81;39.42;96476.31;621828;228;65005;-61
2023/04/05 05:36:55;;;;;;;;;;;;;;;25.82;41.71;96481.39;621698;228;42072;-61
2023/04/05 05:39:19;;;;;;;;;;;;;;;25.83;39.37;96477.62;621549;228;67396;-61
2023/04/05 05:41:47;;;;;;;;;;;;;;;25.85;40.21;96480.80;621675;227;66052;-61
2023/04/05 05:44:15;;;;;;;;;;;;;;;25.88;43.90;96482.85;621803;228;65082;-61
2023/04/05 05:46:44;;;;;;;;;;;;;;;25.89;40.43;96481.77;621890;228;67402;-61
2023/04/05 05:49:11;;;;;;;;;;;;;;;25.91;40.24;96476.05;621760;228;67035;-61
2023/04/05 05:51:39;;;;;;;;;;;;;;;25.93;40.71;96484.61;621828;228;65015;-64
2023/04/05 05:54:07;;;;;;;;;;;;;;;25.97;41.01;96484.76;612841;228;67199;-64
2023/04/05 05:56:34;;;;;;;;;;;;;;;25.97;39.40;96479.37;617783;228;67071;-65
2023/04/05 05:59:02;;;;;;;;;;;;;;;26.01;39.33;96483.82;617395;228;65088;-64
2023/04/05 06:01:33;;;;;;;;;;;;;;;26.03;41.53;96480.83;615067;230;64874;-64
2023/04/05 06:04:00;;;;;;;;;;;;;;;26.06;42.40;96482.88;619192;228;65087;-65
2023/04/05 06:06:28;;;;;;;;;;;;;;;26.05;40.70;96478.58;621632;228;65082;-65
2023/04/05 06:08:56;;;;;;;;;;;;;;;26.06;38.10;96477.49;621569;228;67185;-65
2023/04/05 06:11:25;;;;;;;;;;;;;;;26.08;38.75;96477.95;621271;228;67053;-65
2023/04/05 06:13:57;;;;;;;;;;;;;;;26.10;38.56;96481.91;621595;228;64929;-64
2023/04/05 06:16:22;;;;;;;;;;;;;;;26.12;38.21;96477.00;620743;228;67021;-65
2023/04/05 06:18:50;;;;;;;;;;;;;;;26.14;40.47;96479.39;621455;228;66627;-65
2023/04/05 06:21:17;;;;;;;;;;;;;;;26.16;37.38;96484.45;621325;228;64937;-64
2023/04/05 06:23:44;;;;;;;;;;;;;;;26.20;40.20;96486.20;621167;228;67238;-65
2023/04/05 06:26:17;;;;;;;;;;;;;;;26.22;37.66;96492.06;621178;228;68475;-64
2023/04/05 06:28:46;;;;;;;;;;;;;;;26.25;39.02;96486.04;620955;228;65060;-65
2023/04/05 06:31:15;;;;;;;;;;;;;;;26.27;40.35;96486.52;621564;228;66958;-65
2023/04/05 06:33:43;;;;;;;;;;;;;;;26.27;36.86;96497.30;621528;228;67025;-66
2023/04/05 06:36:11;;;;;;;;;;;;;;;26.30;39.07;96493.96;621582;228;65065;-66
2023/04/05 06:38:39;;;;;;;;;;;;;;;26.33;36.74;96497.92;621087;228;65056;-65
2023/04/05 06:41:08;;;;;;;;;;;;;;;26.35;36.87;96501.07;620826;227;64963;-65
2023/04/05 06:43:35;;;;;;;;;;;;;;;26.38;36.54;96499.64;620950;228;61896;-66
2023/04/05 06:46:07;;;;;;;;;;;;;;;26.40;35.96;96502.82;620493;228;66969;-66
2023/04/05 06:48:33;;;;;;;;;;;;;;;26.42;36.80;96503.30;619925;228;64879;-66
2023/04/05 06:51:01;;;;;;;;;;;;;;;26.44;38.27;96506.48;621268;228;65019;-66
2023/04/05 06:53:29;;;;;;;;;;;;;;;26.46;36.65;96512.31;621398;228;67440;-67
2023/04/05 06:56:00;;;;;;;;;;;;;;;26.49;36.39;96514.37;619449;228;64996;-63
2023/04/05 06:58:27;;;;;;;;;;;;;;;26.48;35.95;96515.49;619647;228;64930;-63
2023/04/05 07:00:55;;;;;;;;;;;;;;;26.54;35.73;96514.23;619500;228;68984;-63
2023/04/05 07:03:22;;;;;;;;;;;;;;;26.57;40.33;96524.38;620683;228;66752;-64
2023/04/05 07:05:58;;;;;;;;;;;;;;;26.61;35.67;96524.55;621479;228;63002;-62
2023/04/05 07:08:26;;;;;;;;;;;;;;;26.66;38.10;96521.69;621487;228;67159;-62
2023/04/05 07:10:54;;;;;;;;;;;;;;;26.66;38.71;96519.78;621323;228;66980;-62
2023/04/05 07:13:23;;;;;;;;;;;;;;;26.68;38.44;96525.66;621464;228;62756;-61
2023/04/05 07:15:51;;;;;;;;;;;;;;;26.71;38.20;96529.59;621424;228;67330;-62
2023/04/05 07:18:19;;;;;;;;;;;;;;;26.72;39.26;96526.58;621540;228;67768;-61
2023/04/05 07:20:51;;;;;;;;;;;;;;;26.74;38.12;96528.97;621144;228;64998;-62
2023/04/05 07:23:18;;;;;;;;;;;;;;;26.75;38.65;96523.25;619653;228;64496;-62
2023/04/05 07:25:46;;;;;;;;;;;;;;;26.76;37.94;96532.12;615937;228;64831;-62
2023/04/05 07:28:13;;;;;;;;;;;;;;;26.77;38.50;96534.50;614275;230;62972;-62
2023/04/05 07:30:41;;;;;;;;;;;;;;;26.79;38.05;96536.86;620523;228;64922;-62
2023/04/05 07:33:08;;;;;;;;;;;;;;;26.81;38.55;96536.56;620519;228;64418;-61
2023/04/05 07:35:36;;;;;;;;;;;;;;;26.82;38.15;96535.44;618769;229;62759;-61
2023/04/05 07:38:03;;;;;;;;;;;;;;;26.83;38.53;96542.43;618810;229;64660;-61
2023/04/05 07:40:31;;;;;;;;;;;;;;;26.83;38.82;96537.03;617761;229;64801;-61
2023/04/05 07:42:58;;;;;;;;;;;;;;;26.85;37.94;96540.22;616968;230;64905;-61
2023/04/05 07:45:26;;;;;;;;;;;;;;;26.86;38.03;96536.39;616862;230;67016;-61
2023/04/05 07:47:53;;;;;;;;;;;;;;;26.86;39.05;96539.88;616551;227;63849;-61
2023/04/05 07:50:21;;;;;;;;;;;;;;;26.87;37.77;96537.97;616695;230;62902;-61
2023/04/05 07:52:48;;;;;;;;;;;;;;;26.88;37.68;96542.27;616060;230;65525;-61
2023/04/05 07:55:16;;;;;;;;;;;;;;;26.89;38.03;96541.14;617241;230;64914;-61
2023/04/05 07:57:43;;;;;;;;;;;;;;;26.90;38.57;96540.02;616907;230;62888;-61
2023/04/05 08:00:12;;;;;;;;;;;;;;;26.89;37.66;96543.84;616313;230;66915;-62
2023/04/05 08:02:42;;;;;;;;;;;;;;;26.90;37.86;96538.14;616880;227;67124;-61
2023/04/05 08:05:10;;;;;;;;;;;;;;;26.91;37.65;96542.41;617031;230;64880;-63
2023/04/05 08:07:37;;;;;;;;;;;;;;;26.92;39.60;96546.67;617085;230;65349;-61
2023/04/05 08:10:05;;;;;;;;;;;;;;;26.89;37.13;96546.53;620477;227;64903;-60
2023/04/05 08:12:33;;;;;;;;;;;;;;;26.90;37.51;96553.50;624247;227;64990;-61
2023/04/05 08:15:01;;;;;;;;;;;;;;;26.89;38.22;96550.02;624186;227;67071;-61
2023/04/05 08:17:29;;;;;;;;;;;;;;;26.89;37.22;96552.71;621817;227;65063;-61
2023/04/05 08:19:56;;;;;;;;;;;;;;;26.89;37.83;96549.23;624219;227;65034;-61
2023/04/05 08:22:26;;;;;;;;;;;;;;;26.88;37.23;96548.44;615814;227;70435;-61
2023/04/05 08:24:53;;;;;;;;;;;;;;;26.89;42.40;96552.71;624533;226;64564;-61
2023/04/05 08:27:20;;;;;;;;;;;;;;;26.88;38.23;96544.96;624230;227;63771;-61
2023/04/05 08:29:49;;;;;;;;;;;;;;;26.89;37.28;96546.53;623924;227;67144;-63
2023/04/05 08:32:17;;;;;;;;;;;;;;;26.90;41.33;96548.92;623915;227;64792;-61
2023/04/05 08:34:44;;;;;;;;;;;;;;;26.90;37.41;96553.50;624040;227;65244;-61
2023/04/05 08:37:11;;;;;;;;;;;;;;;26.88;39.04;96551.14;624305;227;67284;-61
2023/04/05 08:39:40;;;;;;;;;;;;;;;26.88;36.37;96556.53;624270;227;66882;-60
2023/04/05 08:42:15;;;;;;;;;;;;;;;26.88;38.72;96551.14;624424;227;64877;-60
2023/04/05 08:44:45;;;;;;;;;;;;;;;26.86;42.44;96555.27;624316;227;67183;-60
2023/04/05 08:47:17;;;;;;;;;;;;;;;26.84;42.12;96557.48;624123;227;66841;-61
2023/04/05 08:49:45;;;;;;;;;;;;;;;26.82;40.55;96552.42;624203;225;65065;-60
2023/04/05 08:52:13;;;;;;;;;;;;;;;26.82;40.56;96557.00;624338;227;66978;-61
2023/04/05 08:54:41;;;;;;;;;;;;;;;26.81;42.67;96563.52;624235;225;64333;-60
2023/04/05 08:57:09;;;;;;;;;;;;;;;26.80;40.07;96562.73;624320;227;65029;-62
2023/04/05 08:59:43;;;;;;;;;;;;;;;26.81;41.48;96558.13;624248;227;66876;-62
2023/04/05 09:02:09;;;;;;;;;;;;;;;26.82;42.60;96565.91;617823;225;67053;-61
2023/04/05 09:04:39;;;;;;;;;;;;;;;26.81;41.37;96563.52;615330;229;63829;-61
2023/04/05 09:07:08;;;;;;;;;;;;;;;26.81;39.07;96566.21;616577;230;67233;-61
2023/04/05 09:09:37;;;;;;;;;;;;;;;26.82;40.53;96567.78;617066;230;67111;-62
2023/04/05 09:12:05;;;;;;;;;;;;;;;26.82;40.88;96565.09;617232;230;65008;-62
2023/04/05 09:14:36;;;;;;;;;;;;;;;26.82;40.14;96571.30;617229;230;66757;-61
2023/04/05 09:17:06;;;;;;;;;;;;;;;26.82;39.98;96573.17;616929;230;67049;-61
2023/04/05 09:19:34;;;;;;;;;;;;;;;26.83;38.98;96567.48;617176;230;65027;-60
2023/04/05 09:22:03;;;;;;;;;;;;;;;26.84;39.00;96576.36;617192;230;68710;-60
2023/04/05 09:24:35;;;;;;;;;;;;;;;26.84;40.03;96565.57;616773;228;44269;-60
2023/04/05 09:27:06;;;;;;;;;;;;;;;26.85;38.88;96567.96;617171;230;64872;-60
2023/04/05 09:29:34;;;;;;;;;;;;;;;26.86;40.77;96568.75;617157;227;67272;-61
2023/04/05 09:32:04;;;;;;;;;;;;;;;26.86;41.61;96576.83;618774;227;43456;-61
2023/04/05 09:34:32;;;;;;;;;;;;;;;26.85;40.42;96577.95;618815;227;64993;-60
2023/04/05 09:37:00;;;;;;;;;;;;;;;26.86;40.90;96571.44;622226;227;64965;-61
2023/04/05 09:39:32;;;;;;;;;;;;;;;26.85;42.31;96570.66;618186;227;67207;-60
2023/04/05 09:42:06;;;;;;;;;;;;;;;26.86;41.89;96568.75;616462;230;66280;-60
2023/04/05 09:44:43;;;;;;;;;;;;;;;26.85;36.75;96572.56;617305;230;67504;-60
2023/04/05 09:47:17;;;;;;;;;;;;;;;26.86;41.59;96571.44;615038;228;67537;-62
2023/04/05 09:49:44;;;;;;;;;;;;;;;26.85;40.05;96572.56;617443;230;64979;-62
2023/04/05 09:52:28;;;;;;;;;;;;;;;26.86;39.57;96566.05;617418;230;67135;-62
2023/04/05 09:54:57;;;;;;;;;;;;;;;26.87;39.57;96570.32;617363;230;66965;-61
2023/04/05 09:57:32;;;;;;;;;;;;;;;26.87;40.74;96562.23;617474;227;62778;-62
2023/04/05 09:59:57;;;;;;;;;;;;;;;26.86;41.48;96555.27;617077;228;64827;-62
2023/04/05 10:02:25;;;;;;;;;;;;;;;26.86;37.50;96557.96;617506;230;64672;-61
2023/04/05 10:04:53;;;;;;;;;;;;;;;26.87;39.57;96554.14;617435;230;65210;-63
2023/04/05 10:07:20;;;;;;;;;;;;;;;26.86;41.29;96558.75;616987;230;67011;-64
2023/04/05 10:09:48;;;;;;;;;;;;;;;26.86;41.62;96556.05;617393;230;67391;-60
2023/04/05 10:12:25;;;;;;;;;;;;;;;26.86;40.64;96563.35;617455;230;64870;-62
2023/04/05 10:14:52;;;;;;;;;;;;;;;26.85;40.23;96554.48;617054;228;67126;-61
2023/04/05 10:17:22;;;;;;;;;;;;;;;26.84;40.74;96549.39;617110;230;67017;-61
2023/04/05 10:19:51;;;;;;;;;;;;;;;26.86;39.64;96552.57;617435;230;65172;-64
2023/04/05 10:22:20;;;;;;;;;;;;;;;26.85;39.28;96549.09;617403;230;67143;-62
2023/04/05 10:24:49;;;;;;;;;;;;;;;26.85;39.64;96551.00;617218;228;67149;-63
2023/04/05 10:27:21;;;;;;;;;;;;;;;26.86;39.24;96547.17;617326;228;65124;-63
2023/04/05 10:30:04;;;;;;;;;;;;;;;26.85;40.53;96541.00;616954;228;66961;-61
2023/04/05 10:32:37;;;;;;;;;;;;;;;26.86;39.39;96547.96;617698;227;65806;-65
2023/04/05 10:35:12;;;;;;;;;;;;;;;26.85;39.75;96540.22;617330;229;65063;-64
2023/04/05 10:37:51;;;;;;;;;;;;;;;26.84;39.98;96544.00;617312;229;67484;-64
2023/04/05 10:40:21;;;;;;;;;;;;;;;26.83;41.42;96545.12;615709;229;64967;-66
2023/04/05 10:42:49;;;;;;;;;;;;;;;26.85;39.46;96545.61;613794;231;65005;-64
2023/04/05 10:45:22;;;;;;;;;;;;;;;26.83;40.63;96551.30;615906;228;64842;-63
2023/04/05 10:47:49;;;;;;;;;;;;;;;26.83;39.03;96547.82;613964;230;64887;-65
2023/04/05 10:50:18;;;;;;;;;;;;;;;26.85;41.55;96553.69;614144;230;62120;-64
2023/04/05 10:52:46;;;;;;;;;;;;;;;26.85;41.88;96551.00;614622;230;67254;-64
2023/04/05 10:55:15;;;;;;;;;;;;;;;26.86;40.72;96547.17;614943;230;65100;-63
2023/04/05 10:57:44;;;;;;;;;;;;;;;26.90;35.57;96550.80;615046;230;65043;-63
2023/04/05 11:00:13;;;;;;;;;;;;;;;26.94;37.46;96552.55;615028;230;67167;-66
2023/04/05 11:02:41;;;;;;;;;;;;;;;26.95;36.60;96553.33;615064;230;67046;-63
2023/04/05 11:05:10;;;;;;;;;;;;;;;26.97;40.67;96543.81;615048;230;65012;-61
2023/04/05 11:07:44;;;;;;;;;;;;;;;26.96;42.81;96553.02;614171;230;67243;-61
2023/04/05 11:10:16;;;;;;;;;;;;;;;26.96;41.04;96554.94;615024;230;67078;-64
2023/04/05 11:12:49;;;;;;;;;;;;;;;26.99;42.03;96556.98;615092;230;65176;-63
2023/04/05 11:15:24;;;;;;;;;;;;;;;27.03;41.18;96555.22;615116;230;67243;-63
2023/04/05 11:18:08;;;;;;;;;;;;;;;27.05;40.98;96555.69;613719;230;64730;-65
2023/04/05 11:20:41;;;;;;;;;;;;;;;27.07;40.49;96558.87;615009;230;65098;-65
2023/04/05 11:23:10;;;;;;;;;;;;;;;27.10;40.94;96558.22;614867;230;67291;-65
2023/04/05 11:25:41;;;;;;;;;;;;;;;27.13;41.32;96557.58;614840;230;67424;-65
2023/04/05 11:28:09;;;;;;;;;;;;;;;27.13;41.39;96552.18;615005;230;63080;-65
2023/04/05 11:30:46;;;;;;;;;;;;;;;27.15;42.14;96551.88;615118;230;67378;-65
2023/04/05 11:33:32;;;;;;;;;;;;;;;27.14;41.09;96556.45;616020;228;64981;-66
2023/04/05 11:36:03;;;;;;;;;;;;;;;27.16;40.76;96554.27;615059;230;63181;-64
2023/04/05 11:38:31;;;;;;;;;;;;;;;27.17;40.51;96552.34;615102;229;67231;-66
2023/04/05 11:41:16;;;;;;;;;;;;;;;27.19;39.72;96556.31;616552;229;66999;-65
2023/04/05 11:43:46;;;;;;;;;;;;;;;27.19;41.15;96553.61;618297;227;65314;-65
2023/04/05 11:46:14;;;;;;;;;;;;;;;27.20;41.91;96555.21;624601;227;66709;-66
2023/04/05 11:48:42;;;;;;;;;;;;;;;27.21;40.50;96551.39;624619;227;66872;-65
2023/04/05 11:51:11;;;;;;;;;;;;;;;27.22;41.07;96552.96;624562;227;41430;-65
2023/04/05 11:53:38;;;;;;;;;;;;;;;27.23;40.60;96556.48;624611;227;64965;-65
2023/04/05 11:56:11;;;;;;;;;;;;;;;27.24;41.55;96555.34;624470;227;46409;-65
2023/04/05 11:58:38;;;;;;;;;;;;;;;27.26;38.69;96557.73;624576;227;62971;-66
2023/04/05 12:01:07;;;;;;;;;;;;;;;27.28;40.28;96558.19;624645;227;64565;-66
2023/04/05 12:03:35;;;;;;;;;;;;;;;27.27;40.00;96557.40;624544;227;64618;-64
2023/04/05 12:06:05;;;;;;;;;;;;;;;27.28;40.16;96550.09;624566;227;65118;-65
2023/04/05 12:08:48;;;;;;;;;;;;;;;27.29;40.31;96549.78;620306;227;68103;-65
2023/04/05 12:11:12;;;;;;;;;;;;;;;27.29;39.80;96554.39;617348;228;67141;-68
2023/04/05 12:13:39;;;;;;;;;;;;;;;27.30;39.89;96547.87;617445;230;65108;-66
2023/04/05 12:16:08;;;;;;;;;;;;;;;27.30;41.08;96548.66;617368;229;67171;-65
2023/04/05 12:18:36;;;;;;;;;;;;;;;27.30;41.29;96551.36;617481;230;67136;-65
2023/04/05 12:21:05;;;;;;;;;;;;;;;27.30;39.82;96547.87;617466;230;64991;-65
2023/04/05 12:23:33;;;;;;;;;;;;;;;27.32;40.78;96549.13;617399;230;67318;-66
2023/04/05 12:26:00;;;;;;;;;;;;;;;27.32;40.11;96549.13;617439;230;66870;-66
2023/04/05 12:28:46;;;;;;;;;;;;;;;27.33;39.68;96547.22;617522;230;62987;-66
2023/04/05 12:31:13;;;;;;;;;;;;;;;27.33;41.23;96547.22;617463;230;67331;-63
2023/04/05 12:33:43;;;;;;;;;;;;;;;27.33;40.35;96548.01;617531;230;64783;-64
2023/04/05 12:36:10;;;;;;;;;;;;;;;27.33;40.70;96553.41;617438;230;64937;-64
2023/04/05 12:38:38;;;;;;;;;;;;;;;27.33;39.98;96549.92;617427;230;67209;-65
2023/04/05 12:41:05;;;;;;;;;;;;;;;27.33;41.09;96556.09;618920;229;67169;-66
2023/04/05 12:43:42;;;;;;;;;;;;;;;27.34;40.40;96555.00;619762;229;64998;-65
2023/04/05 12:46:11;;;;;;;;;;;;;;;27.34;40.28;96549.61;619604;229;67273;-67
2023/04/05 12:48:41;;;;;;;;;;;;;;;27.34;40.38;96557.70;619581;228;66681;-65
2023/04/05 12:51:16;;;;;;;;;;;;;;;27.34;40.95;96562.31;619719;229;65152;-64
2023/04/05 12:53:50;;;;;;;;;;;;;;;27.34;40.24;96560.41;619532;228;64983;-64
2023/04/05 12:56:18;;;;;;;;;;;;;;;27.34;39.89;96559.61;619604;229;67100;-64
2023/04/05 12:58:47;;;;;;;;;;;;;;;27.34;40.32;96563.09;619698;229;63896;-61